Time;durP1;ratioP1;P1;durP2;ratioP2;P2;SDS_P1;SDS_P2;PMS_P1;PMS_P2;Temp;Humidity;BMP_temperature;BMP_pressure;BME280_temperature;BME280_humidity;BME280_pressure;Samples;Min_cycle;Max_cycle;Signal;HPM_P1;HPM_P2
2023/08/29 00:02:13;;;;;;;4.93;3.33;;;14.90;78.60;;;;;;5009064;28;20249;-72
2023/08/29 00:04:39;;;;;;;7.20;3.30;;;15.00;78.40;;;;;;5012839;28;20227;-73
2023/08/29 00:07:05;;;;;;;5.23;3.60;;;15.00;78.30;;;;;;5008093;28;20438;-72
2023/08/29 00:09:31;;;;;;;6.30;4.30;;;15.00;78.40;;;;;;5018784;28;20189;-73
2023/08/29 00:11:57;;;;;;;6.20;4.13;;;14.80;78.90;;;;;;5010217;28;21267;-73
2023/08/29 00:14:23;;;;;;;5.60;4.20;;;14.70;79.20;;;;;;5018604;28;20430;-71
2023/08/29 00:16:48;;;;;;;7.70;4.70;;;14.60;79.50;;;;;;5020898;28;20554;-72
2023/08/29 00:19:15;;;;;;;4.60;3.67;;;14.60;79.60;;;;;;5007123;28;20279;-72
2023/08/29 00:21:44;;;;;;;6.20;4.03;;;14.70;79.60;;;;;;5006655;28;20222;-72
2023/08/29 00:24:09;;;;;;;5.97;3.27;;;14.80;79.50;;;;;;5012823;28;20449;-73
2023/08/29 00:26:35;;;;;;;5.70;3.80;;;14.80;79.30;;;;;;5014309;28;20838;-72
2023/08/29 00:29:01;;;;;;;4.93;4.10;;;14.70;79.50;;;;;;5005049;28;20472;-73
2023/08/29 00:31:26;;;;;;;5.40;3.70;;;14.70;79.50;;;;;;5003570;28;20210;-75
2023/08/29 00:33:53;;;;;;;6.13;4.13;;;14.80;79.20;;;;;;5005860;28;20268;-72
2023/08/29 00:36:19;;;;;;;5.83;3.60;;;14.80;79.20;;;;;;5015204;28;20182;-74
2023/08/29 00:38:44;;;;;;;8.03;4.30;;;14.80;79.30;;;;;;5009663;28;20971;-75
2023/08/29 00:41:10;;;;;;;5.43;4.30;;;14.80;79.20;;;;;;5006546;28;20462;-72
2023/08/29 00:43:37;;;;;;;6.37;4.63;;;14.90;79.20;;;;;;5011070;28;20214;-73
2023/08/29 00:46:04;;;;;;;4.40;3.53;;;14.90;79.00;;;;;;5012445;28;20901;-74
2023/08/29 00:48:31;;;;;;;7.30;4.40;;;14.90;79.30;;;;;;5007140;28;20527;-73
2023/08/29 00:50:57;;;;;;;8.37;4.30;;;14.90;78.70;;;;;;5010751;28;20835;-73
2023/08/29 00:53:24;;;;;;;5.53;4.20;;;14.90;78.90;;;;;;5016692;28;20414;-73
2023/08/29 00:55:49;;;;;;;6.10;4.20;;;15.00;78.90;;;;;;5019907;28;20423;-72
2023/08/29 00:58:15;;;;;;;10.97;5.50;;;15.00;78.90;;;;;;5014771;28;20428;-74
2023/08/29 01:00:42;;;;;;;5.50;4.43;;;15.10;78.70;;;;;;5011926;28;20267;-72
2023/08/29 01:03:07;;;;;;;4.63;3.70;;;15.10;78.60;;;;;;5009337;28;20677;-73
2023/08/29 01:05:33;;;;;;;4.53;3.83;;;15.20;78.30;;;;;;5014873;28;20424;-73
2023/08/29 01:08:00;;;;;;;7.57;4.90;;;15.20;78.10;;;;;;5014671;28;20755;-73
2023/08/29 01:11:00;;;;;;;5.77;4.07;;;15.10;78.10;;;;;;5016114;28;20227;-74
2023/08/29 01:13:54;;;;;;;6.70;4.67;;;15.10;78.60;;;;;;5011585;28;20479;-73
2023/08/29 01:16:25;;;;;;;5.10;4.40;;;15.00;78.70;;;;;;5014311;28;20828;-72
2023/08/29 01:18:53;;;;;;;6.30;4.60;;;15.10;78.70;;;;;;5015798;28;20460;-71
2023/08/29 01:21:36;;;;;;;5.10;4.03;;;15.20;78.40;;;;;;5005077;28;20467;-72
2023/08/29 01:24:10;;;;;;;6.33;4.70;;;15.20;78.40;;;;;;5005520;28;20472;-71
2023/08/29 01:26:36;;;;;;;5.93;4.37;;;15.20;78.30;;;;;;5015280;28;20796;-72
2023/08/29 01:29:03;;;;;;;8.47;4.30;;;15.20;78.40;;;;;;5019071;28;20762;-71
2023/08/29 01:31:31;;;;;;;6.17;4.10;;;15.20;78.30;;;;;;5007585;28;20518;-72
2023/08/29 01:34:00;;;;;;;9.90;5.50;;;15.20;78.40;;;;;;5009593;28;20424;-72
2023/08/29 01:36:27;;;;;;;6.90;4.40;;;15.00;78.60;;;;;;5012047;28;20435;-72
2023/08/29 01:38:53;;;;;;;7.43;4.40;;;15.10;79.00;;;;;;5014855;28;20566;-70
2023/08/29 01:41:19;;;;;;;11.23;5.33;;;15.20;78.60;;;;;;5010428;28;21040;-72
2023/08/29 01:43:44;;;;;;;6.67;4.70;;;15.00;78.60;;;;;;5015113;28;20182;-72
2023/08/29 01:46:10;;;;;;;5.63;4.40;;;14.90;79.00;;;;;;5018694;28;20195;-73
2023/08/29 01:48:38;;;;;;;8.00;4.60;;;15.00;79.30;;;;;;5020412;28;20236;-70
2023/08/29 01:51:03;;;;;;;8.87;5.27;;;15.10;79.00;;;;;;5011266;28;20217;-72
2023/08/29 01:53:29;;;;;;;7.10;4.30;;;15.10;79.00;;;;;;5007627;28;20529;-70
2023/08/29 01:55:56;;;;;;;8.93;4.83;;;15.20;78.70;;;;;;5010355;28;20267;-72
2023/08/29 01:58:22;;;;;;;8.27;4.50;;;15.10;78.70;;;;;;5013098;28;20185;-72
2023/08/29 02:00:49;;;;;;;6.10;5.10;;;15.20;79.00;;;;;;5007743;28;20448;-72
2023/08/29 02:03:14;;;;;;;6.60;4.80;;;15.20;78.60;;;;;;5007372;28;20408;-71
2023/08/29 02:05:41;;;;;;;7.17;4.37;;;15.30;78.30;;;;;;5016326;28;21259;-72
2023/08/29 02:08:07;;;;;;;5.70;4.40;;;15.30;78.10;;;;;;5012783;28;20615;-71
2023/08/29 02:10:32;;;;;;;8.63;4.73;;;15.30;78.30;;;;;;5005243;28;20455;-73
2023/08/29 02:12:58;;;;;;;6.53;3.93;;;15.20;78.40;;;;;;5008363;28;20265;-74
2023/08/29 02:15:24;;;;;;;7.03;4.77;;;15.20;78.40;;;;;;5006260;28;20186;-73
2023/08/29 02:17:51;;;;;;;6.60;4.73;;;15.20;78.30;;;;;;5015733;28;20227;-71
2023/08/29 02:20:16;;;;;;;6.43;4.43;;;15.20;78.70;;;;;;5016719;28;20238;-73
2023/08/29 02:22:42;;;;;;;6.10;4.90;;;15.20;78.30;;;;;;5012128;28;20510;-72
2023/08/29 02:25:07;;;;;;;7.20;4.87;;;15.20;78.60;;;;;;5010314;28;20527;-71
2023/08/29 02:27:33;;;;;;;6.20;4.20;;;15.20;78.60;;;;;;5012853;28;20729;-70
2023/08/29 02:29:59;;;;;;;7.97;4.20;;;15.20;78.40;;;;;;5012882;28;20196;-73
2023/08/29 02:32:24;;;;;;;7.50;5.10;;;15.30;78.10;;;;;;5012320;28;20183;-73
2023/08/29 02:34:50;;;;;;;4.93;4.23;;;15.30;78.00;;;;;;5014085;28;20187;-74
2023/08/29 02:37:15;;;;;;;7.70;4.80;;;15.20;78.00;;;;;;5015259;28;20665;-71
2023/08/29 02:39:41;;;;;;;6.00;4.00;;;15.30;78.30;;;;;;5011182;28;20205;-72
2023/08/29 02:42:07;;;;;;;6.63;4.73;;;15.30;78.00;;;;;;5014728;28;20209;-73
2023/08/29 02:44:33;;;;;;;5.93;4.20;;;15.20;78.30;;;;;;5013943;28;20432;-74
2023/08/29 02:46:58;;;;;;;6.40;4.83;;;15.30;78.30;;;;;;5010195;28;20189;-72
2023/08/29 02:49:24;;;;;;;9.40;5.63;;;15.30;78.10;;;;;;5011762;28;20714;-72
2023/08/29 02:51:50;;;;;;;9.63;5.83;;;15.30;78.00;;;;;;5010843;28;20206;-73
2023/08/29 02:54:15;;;;;;;9.77;6.20;;;15.00;78.60;;;;;;5012688;28;20195;-72
2023/08/29 02:56:41;;;;;;;6.37;5.13;;;15.00;79.00;;;;;;5015898;28;20197;-73
2023/08/29 02:59:06;;;;;;;5.80;4.43;;;15.10;78.90;;;;;;5014499;28;20206;-72
2023/08/29 03:01:32;;;;;;;8.10;5.50;;;15.20;78.70;;;;;;5012800;28;20256;-73
2023/08/29 03:03:57;;;;;;;7.40;5.07;;;15.30;78.70;;;;;;5013445;28;20185;-72
2023/08/29 03:06:23;;;;;;;6.57;4.90;;;15.20;78.30;;;;;;5015816;28;20672;-73
2023/08/29 03:08:49;;;;;;;6.63;5.13;;;15.20;78.70;;;;;;5009771;28;20242;-73
2023/08/29 03:11:14;;;;;;;7.80;5.50;;;15.30;79.00;;;;;;5009963;28;20206;-73
2023/08/29 03:13:40;;;;;;;8.63;5.60;;;15.30;79.00;;;;;;5005354;28;20229;-72
2023/08/29 03:16:16;;;;;;;8.50;5.90;;;15.10;78.40;;;;;;5018010;28;20193;-72
2023/08/29 03:18:42;;;;;;;9.80;5.70;;;14.90;79.20;;;;;;5013200;28;20239;-74
2023/08/29 03:21:08;;;;;;;7.23;5.67;;;14.80;79.30;;;;;;5009565;28;20878;-72
2023/08/29 03:23:35;;;;;;;6.70;5.27;;;14.80;79.50;;;;;;5011471;28;20206;-72
2023/08/29 03:26:08;;;;;;;6.73;5.20;;;14.80;79.70;;;;;;5016188;28;20189;-74
2023/08/29 03:28:34;;;;;;;7.60;5.10;;;15.00;79.60;;;;;;5006449;28;20471;-73
2023/08/29 03:31:08;;;;;;;7.60;5.53;;;15.10;79.00;;;;;;5016365;28;20487;-73
2023/08/29 03:33:33;;;;;;;5.47;5.00;;;14.90;79.00;;;;;;5013196;28;20477;-74
2023/08/29 03:35:59;;;;;;;6.87;5.00;;;14.90;79.20;;;;;;5012017;28;20504;-73
2023/08/29 03:38:25;;;;;;;9.07;5.80;;;15.10;79.30;;;;;;5009595;28;20186;-73
2023/08/29 03:40:57;;;;;;;7.83;5.53;;;15.20;79.00;;;;;;5013751;28;20253;-73
2023/08/29 03:43:25;;;;;;;8.97;5.93;;;15.20;78.70;;;;;;5011987;28;20196;-72
2023/08/29 03:45:58;;;;;;;10.27;5.67;;;15.20;78.60;;;;;;5014818;28;20462;-72
2023/08/29 03:48:23;;;;;;;8.50;5.70;;;15.30;78.70;;;;;;5015969;28;20480;-74
2023/08/29 03:50:49;;;;;;;9.43;5.97;;;15.20;78.70;;;;;;5015092;28;20465;-75
2023/08/29 03:53:15;;;;;;;7.10;5.83;;;15.30;78.60;;;;;;5011793;28;20208;-72
2023/08/29 03:55:41;;;;;;;10.77;6.90;;;15.20;78.60;;;;;;5006026;28;20465;-72
2023/08/29 03:58:07;;;;;;;10.53;6.53;;;15.20;78.70;;;;;;5005667;28;20275;-72
2023/08/29 04:00:32;;;;;;;8.03;6.27;;;15.10;79.00;;;;;;5009521;28;20212;-72
2023/08/29 04:02:59;;;;;;;8.60;6.80;;;15.00;79.30;;;;;;5016922;28;20216;-72
2023/08/29 04:05:25;;;;;;;9.37;6.97;;;15.10;79.50;;;;;;5011835;28;20266;-72
2023/08/29 04:07:51;;;;;;;8.67;5.50;;;15.00;79.50;;;;;;5008309;28;20503;-72
2023/08/29 04:10:17;;;;;;;11.03;7.40;;;14.90;79.90;;;;;;5009191;28;20463;-72
2023/08/29 04:12:42;;;;;;;14.03;7.93;;;15.00;79.90;;;;;;5013796;28;20661;-71
2023/08/29 04:15:10;;;;;;;8.30;6.93;;;14.80;80.20;;;;;;5013723;28;20184;-73
2023/08/29 04:17:36;;;;;;;9.93;7.30;;;14.70;80.50;;;;;;5016413;28;20182;-72
2023/08/29 04:20:08;;;;;;;15.50;8.90;;;14.80;80.60;;;;;;5013452;28;20422;-73
2023/08/29 04:22:34;;;;;;;11.30;8.33;;;14.90;80.80;;;;;;5014541;28;20239;-72
2023/08/29 04:24:59;;;;;;;13.00;7.77;;;14.70;80.80;;;;;;5009502;28;20424;-72
2023/08/29 04:27:25;;;;;;;14.23;8.20;;;14.80;81.10;;;;;;5013380;28;20438;-73
2023/08/29 04:29:50;;;;;;;12.20;8.80;;;14.80;80.90;;;;;;5006715;28;20200;-71
2023/08/29 04:32:16;;;;;;;12.00;8.43;;;14.80;80.90;;;;;;5007533;28;20766;-72
2023/08/29 04:34:41;;;;;;;13.93;9.03;;;14.80;81.10;;;;;;5013177;28;20187;-71
2023/08/29 04:37:07;;;;;;;13.53;8.77;;;15.00;80.60;;;;;;5017878;28;20377;-72
2023/08/29 04:39:33;;;;;;;13.23;8.53;;;14.90;80.50;;;;;;5009926;28;20199;-72
2023/08/29 04:41:58;;;;;;;14.23;8.37;;;15.00;80.50;;;;;;5008396;28;20206;-73
2023/08/29 04:44:24;;;;;;;13.30;9.47;;;15.10;80.20;;;;;;5015416;28;20623;-74
2023/08/29 04:46:50;;;;;;;14.13;8.77;;;15.00;80.00;;;;;;5018059;28;20292;-73
2023/08/29 04:49:16;;;;;;;14.23;8.70;;;14.90;80.50;;;;;;5014162;28;20562;-71
2023/08/29 04:51:41;;;;;;;14.63;9.43;;;14.90;80.90;;;;;;5013650;28;20217;-75
2023/08/29 04:54:07;;;;;;;13.63;8.90;;;15.00;80.50;;;;;;5017505;28;20342;-76
2023/08/29 04:56:32;;;;;;;12.30;8.13;;;15.00;80.50;;;;;;5013526;28;20217;-75
2023/08/29 04:58:58;;;;;;;19.07;9.43;;;15.10;80.30;;;;;;5019188;28;20188;-75
2023/08/29 05:01:23;;;;;;;14.70;10.43;;;15.10;80.20;;;;;;5010278;28;20573;-75
2023/08/29 05:03:49;;;;;;;15.50;10.07;;;15.10;80.20;;;;;;5019268;28;20217;-74
2023/08/29 05:06:15;;;;;;;16.73;9.90;;;15.10;80.50;;;;;;5021302;28;20182;-75
2023/08/29 05:08:40;;;;;;;15.13;10.20;;;15.00;80.90;;;;;;5016598;28;20229;-73
2023/08/29 05:11:06;;;;;;;14.87;9.13;;;14.90;81.20;;;;;;5007949;28;20305;-76
2023/08/29 05:13:32;;;;;;;14.60;9.57;;;15.00;81.20;;;;;;5015549;28;20193;-73
2023/08/29 05:15:57;;;;;;;16.70;9.90;;;15.10;81.20;;;;;;5014960;28;20948;-74
2023/08/29 05:18:23;;;;;;;26.80;10.77;;;15.00;81.20;;;;;;5018465;28;20234;-73
2023/08/29 05:20:48;;;;;;;19.77;11.77;;;15.10;81.20;;;;;;5006952;28;20218;-72
2023/08/29 05:23:14;;;;;;;15.83;9.90;;;15.10;81.20;;;;;;5010481;28;20282;-72
2023/08/29 05:25:43;;;;;;;12.90;9.87;;;15.10;81.50;;;;;;5012521;28;20189;-72
2023/08/29 05:28:08;;;;;;;14.40;9.17;;;15.20;81.40;;;;;;5010723;28;20241;-72
2023/08/29 05:30:35;;;;;;;13.27;9.37;;;15.20;80.90;;;;;;5001754;28;20459;-72
2023/08/29 05:33:00;;;;;;;19.73;11.50;;;15.20;81.10;;;;;;5005354;28;20598;-73
2023/08/29 05:35:26;;;;;;;18.47;12.47;;;15.10;81.20;;;;;;5007948;28;20491;-73
2023/08/29 05:37:51;;;;;;;18.70;11.10;;;14.90;81.70;;;;;;5013131;28;20235;-71
2023/08/29 05:40:17;;;;;;;19.30;10.53;;;14.80;82.20;;;;;;5006329;28;21035;-72
2023/08/29 05:42:42;;;;;;;22.10;11.60;;;14.90;82.50;;;;;;5017218;28;20181;-71
2023/08/29 05:45:09;;;;;;;20.80;12.43;;;15.10;82.10;;;;;;5010025;28;20234;-73
2023/08/29 05:47:34;;;;;;;28.07;13.60;;;14.80;81.90;;;;;;5016144;28;20182;-74
2023/08/29 05:50:00;;;;;;;14.30;10.43;;;14.70;82.50;;;;;;5011977;28;20424;-72
2023/08/29 05:52:25;;;;;;;24.57;12.80;;;14.80;82.80;;;;;;5010141;28;20222;-73
2023/08/29 05:54:51;;;;;;;20.30;12.50;;;14.70;82.70;;;;;;5011643;28;20610;-72
2023/08/29 05:57:16;;;;;;;27.23;13.67;;;14.70;83.10;;;;;;5019426;28;20352;-73
2023/08/29 05:59:42;;;;;;;21.67;13.57;;;14.70;83.00;;;;;;5016817;28;20632;-73
2023/08/29 06:02:08;;;;;;;16.27;10.30;;;14.60;83.10;;;;;;5015906;28;20209;-72
2023/08/29 06:04:33;;;;;;;18.37;11.50;;;14.90;83.40;;;;;;5019810;28;20275;-72
2023/08/29 06:06:59;;;;;;;16.17;10.63;;;15.00;82.70;;;;;;5021478;28;20242;-72
2023/08/29 06:09:24;;;;;;;21.87;12.93;;;15.10;82.40;;;;;;5021480;28;20603;-72
2023/08/29 06:11:50;;;;;;;18.77;11.77;;;14.90;82.10;;;;;;5018940;28;20732;-71
2023/08/29 06:14:15;;;;;;;20.60;11.23;;;14.90;82.70;;;;;;5014420;28;20194;-72
2023/08/29 06:16:41;;;;;;;21.03;11.43;;;14.80;82.80;;;;;;5022988;28;20182;-73
2023/08/29 06:19:06;;;;;;;24.27;13.27;;;14.80;83.00;;;;;;5019949;28;20186;-72
2023/08/29 06:21:32;;;;;;;19.40;11.73;;;14.70;82.80;;;;;;5013136;28;20206;-73
2023/08/29 06:23:58;;;;;;;18.70;11.30;;;14.90;83.10;;;;;;5016797;28;20223;-71
2023/08/29 06:26:23;;;;;;;18.23;10.90;;;15.00;82.70;;;;;;5022782;28;20187;-73
2023/08/29 06:28:49;;;;;;;19.60;12.00;;;15.00;82.50;;;;;;5014460;28;20826;-73
2023/08/29 06:31:14;;;;;;;15.77;11.13;;;14.90;82.50;;;;;;5009309;28;20248;-73
2023/08/29 06:33:40;;;;;;;24.30;12.90;;;14.80;82.50;;;;;;5013404;28;20194;-73
2023/08/29 06:36:06;;;;;;;15.87;11.47;;;14.70;82.80;;;;;;5006156;28;20213;-72
2023/08/29 06:38:32;;;;;;;18.70;11.67;;;14.60;83.10;;;;;;5013421;28;20197;-71
2023/08/29 06:40:58;;;;;;;20.80;12.20;;;14.70;83.30;;;;;;5005230;28;20520;-73
2023/08/29 06:43:24;;;;;;;15.43;9.80;;;14.80;83.30;;;;;;5013514;28;20224;-72
2023/08/29 06:45:50;;;;;;;17.63;11.23;;;14.90;83.30;;;;;;5012894;28;20437;-72
2023/08/29 06:48:16;;;;;;;20.30;10.40;;;15.00;82.50;;;;;;5012258;28;20476;-73
2023/08/29 06:50:42;;;;;;;17.27;11.60;;;15.00;82.70;;;;;;5006287;28;20809;-73
2023/08/29 06:53:08;;;;;;;19.47;11.53;;;14.90;82.50;;;;;;5017598;28;20421;-73
2023/08/29 06:55:34;;;;;;;24.13;13.43;;;14.70;82.80;;;;;;5014894;28;20187;-73
2023/08/29 06:58:01;;;;;;;16.47;11.00;;;14.60;83.60;;;;;;5008766;28;20502;-72
2023/08/29 07:00:27;;;;;;;16.47;11.00;;;14.70;84.10;;;;;;5010539;28;20464;-73
2023/08/29 07:02:53;;;;;;;18.07;11.13;;;14.80;83.60;;;;;;5016883;28;20455;-73
2023/08/29 07:05:19;;;;;;;19.20;12.80;;;14.80;83.30;;;;;;5011693;28;20447;-72
2023/08/29 07:07:45;;;;;;;21.17;13.10;;;14.70;83.60;;;;;;5013211;28;20262;-71
2023/08/29 07:10:11;;;;;;;19.37;13.00;;;14.60;83.70;;;;;;5011908;28;20924;-73
2023/08/29 07:12:36;;;;;;;23.50;13.40;;;14.60;84.10;;;;;;5013226;28;20176;-70
2023/08/29 07:15:02;;;;;;;15.77;10.57;;;14.60;84.40;;;;;;5010404;28;20178;-71
2023/08/29 07:17:28;;;;;;;17.30;12.27;;;14.80;83.70;;;;;;5011806;28;20592;-72
2023/08/29 07:19:53;;;;;;;20.73;12.83;;;14.90;83.30;;;;;;5009844;28;20184;-72
2023/08/29 07:22:19;;;;;;;20.73;12.53;;;14.70;83.80;;;;;;5010471;28;20209;-74
2023/08/29 07:24:45;;;;;;;18.50;11.70;;;14.60;84.10;;;;;;5013223;28;20189;-73
2023/08/29 07:27:16;;;;;;;22.40;12.73;;;14.60;84.10;;;;;;5004988;28;20194;-72
2023/08/29 07:29:42;;;;;;;21.80;12.17;;;14.50;84.40;;;;;;5003266;28;20278;-75
2023/08/29 07:32:08;;;;;;;19.27;12.40;;;14.60;84.90;;;;;;5007364;28;20458;-72
2023/08/29 07:34:34;;;;;;;15.70;10.80;;;14.90;84.90;;;;;;5013607;28;20497;-72
2023/08/29 07:36:59;;;;;;;17.50;10.63;;;15.00;84.70;;;;;;5010783;28;20189;-72
2023/08/29 07:39:25;;;;;;;22.37;11.63;;;15.20;84.60;;;;;;5020848;28;20234;-71
2023/08/29 07:41:52;;;;;;;20.27;10.80;;;15.20;83.70;;;;;;5006680;28;20230;-73
2023/08/29 07:44:19;;;;;;;18.23;11.07;;;15.40;82.80;;;;;;5010863;28;20476;-73
2023/08/29 07:46:44;;;;;;;15.60;9.97;;;15.30;81.90;;;;;;5009669;28;20211;-71
2023/08/29 07:49:13;;;;;;;16.00;10.80;;;15.20;82.40;;;;;;5007995;28;20468;-73
2023/08/29 07:51:42;;;;;;;18.03;10.40;;;15.20;82.50;;;;;;5004902;28;20240;-72
2023/08/29 07:54:08;;;;;;;16.20;10.87;;;15.30;82.40;;;;;;5013034;28;20446;-72
2023/08/29 07:56:33;;;;;;;16.07;10.57;;;15.20;82.50;;;;;;5015755;28;20486;-72
2023/08/29 07:59:01;;;;;;;13.00;9.23;;;15.30;82.80;;;;;;5018989;28;20213;-74
2023/08/29 08:01:27;;;;;;;16.17;10.20;;;15.30;82.80;;;;;;5010308;28;20206;-72
2023/08/29 08:03:53;;;;;;;14.50;10.67;;;15.30;82.70;;;;;;5013480;28;20518;-72
2023/08/29 08:06:18;;;;;;;16.07;11.10;;;15.30;83.00;;;;;;5012020;28;20647;-72
2023/08/29 08:08:44;;;;;;;15.20;9.90;;;15.30;82.80;;;;;;5016341;28;20209;-71
2023/08/29 08:11:10;;;;;;;18.83;12.27;;;15.20;83.40;;;;;;5007036;28;20222;-72
2023/08/29 08:13:35;;;;;;;18.40;12.07;;;14.90;83.60;;;;;;5011393;28;20190;-73
2023/08/29 08:16:01;;;;;;;22.43;13.17;;;14.80;84.60;;;;;;5013993;28;20598;-71
2023/08/29 08:18:26;;;;;;;16.87;11.33;;;14.70;85.00;;;;;;5014115;28;20634;-72
2023/08/29 08:20:52;;;;;;;18.90;12.40;;;14.90;85.60;;;;;;5006184;28;20299;-72
2023/08/29 08:23:20;;;;;;;19.07;12.83;;;14.90;85.20;;;;;;5010042;28;20566;-71
2023/08/29 08:25:46;;;;;;;24.47;14.70;;;14.90;85.30;;;;;;5016391;28;20187;-72
2023/08/29 08:28:13;;;;;;;17.17;11.63;;;14.90;85.60;;;;;;5016919;28;20474;-72
2023/08/29 08:30:39;;;;;;;17.13;12.50;;;15.00;86.00;;;;;;5015169;28;20211;-72
2023/08/29 08:33:05;;;;;;;23.13;15.00;;;15.00;85.90;;;;;;5013125;28;20422;-72
2023/08/29 08:35:31;;;;;;;20.83;13.40;;;14.90;85.30;;;;;;5012652;28;20214;-73
2023/08/29 08:37:57;;;;;;;19.17;13.20;;;14.90;85.60;;;;;;5015204;28;20428;-72
2023/08/29 08:40:22;;;;;;;21.17;13.67;;;14.80;85.50;;;;;;5017054;28;20852;-71
2023/08/29 08:42:48;;;;;;;22.27;13.80;;;14.90;85.70;;;;;;5017767;28;20189;-73
2023/08/29 08:45:14;;;;;;;21.23;14.30;;;14.80;85.60;;;;;;5007987;28;20593;-74
2023/08/29 08:47:40;;;;;;;24.23;15.50;;;14.70;85.90;;;;;;5017213;28;20174;-73
2023/08/29 08:50:10;;;;;;;27.53;15.33;;;14.70;86.00;;;;;;5006971;28;20852;-72
2023/08/29 08:52:38;;;;;;;26.13;16.03;;;14.70;86.90;;;;;;5010736;28;20212;-71
2023/08/29 08:55:05;;;;;;;26.30;17.40;;;14.60;87.40;;;;;;5021914;28;20495;-74
2023/08/29 08:57:31;;;;;;;26.77;16.73;;;14.70;87.70;;;;;;5013273;28;20415;-73
2023/08/29 08:59:57;;;;;;;21.63;14.60;;;14.90;88.00;;;;;;5020912;28;20417;-74
2023/08/29 09:02:24;;;;;;;25.73;15.70;;;15.20;87.80;;;;;;5009865;28;20592;-74
2023/08/29 09:04:50;;;;;;;20.67;14.60;;;15.50;87.40;;;;;;5018322;28;20332;-73
2023/08/29 09:07:15;;;;;;;23.00;14.80;;;15.70;87.00;;;;;;5013590;28;20454;-74
2023/08/29 09:09:41;;;;;;;23.07;14.83;;;15.60;85.90;;;;;;5020245;28;20659;-73
2023/08/29 09:12:07;;;;;;;21.80;14.97;;;15.40;85.00;;;;;;5013615;28;20237;-73
2023/08/29 09:14:32;;;;;;;22.03;15.17;;;15.50;85.30;;;;;;5010028;28;20187;-74
2023/08/29 09:17:04;;;;;;;22.20;14.63;;;15.50;85.20;;;;;;5015639;28;20205;-74
2023/08/29 09:19:33;;;;;;;22.73;15.43;;;15.60;85.50;;;;;;5013085;28;20223;-72
2023/08/29 09:21:59;;;;;;;23.93;13.60;;;15.80;85.30;;;;;;5009009;28;20460;-72
2023/08/29 09:24:35;;;;;;;18.37;12.60;;;15.80;84.70;;;;;;5011631;28;20901;-74
2023/08/29 09:27:07;;;;;;;23.57;14.17;;;15.50;83.60;;;;;;5017392;28;20410;-73
2023/08/29 09:29:33;;;;;;;19.53;13.57;;;15.30;84.70;;;;;;5010810;28;20522;-73
2023/08/29 09:31:59;;;;;;;20.53;13.20;;;15.10;85.30;;;;;;5012526;28;20460;-73
2023/08/29 09:34:30;;;;;;;21.57;13.87;;;15.20;85.30;;;;;;5009794;28;21315;-74
2023/08/29 09:36:58;;;;;;;26.60;12.57;;;15.30;85.50;;;;;;5019135;28;20457;-73
2023/08/29 09:39:24;;;;;;;20.40;14.00;;;15.20;85.50;;;;;;5010465;28;20881;-72
2023/08/29 09:42:09;;;;;;;19.00;12.07;;;15.30;85.60;;;;;;5013575;28;20461;-73
2023/08/29 09:44:38;;;;;;;18.27;12.87;;;15.30;85.50;;;;;;5013522;28;20476;-73
2023/08/29 09:47:09;;;;;;;19.20;13.10;;;15.40;85.00;;;;;;5009631;28;20451;-72
2023/08/29 09:49:47;;;;;;;18.90;12.43;;;15.30;84.40;;;;;;5010813;28;20468;-72
2023/08/29 09:52:13;;;;;;;24.50;12.83;;;15.40;85.00;;;;;;5009082;28;20573;-73
2023/08/29 09:54:47;;;;;;;20.43;14.03;;;15.60;85.20;;;;;;5015030;28;20437;-72
2023/08/29 09:57:19;;;;;;;21.87;14.23;;;15.60;84.40;;;;;;5020180;28;20444;-73
2023/08/29 09:59:45;;;;;;;22.20;14.10;;;15.70;84.60;;;;;;5024455;28;20634;-73
2023/08/29 10:02:12;;;;;;;19.37;13.77;;;15.50;84.00;;;;;;5009449;28;20940;-73
2023/08/29 10:04:45;;;;;;;21.03;13.13;;;15.70;84.60;;;;;;5017975;28;20464;-72
2023/08/29 10:07:24;;;;;;;15.40;12.10;;;15.80;84.70;;;;;;5011753;28;20451;-72
2023/08/29 10:09:51;;;;;;;21.17;13.43;;;16.00;84.10;;;;;;5016854;28;20555;-72
2023/08/29 10:12:18;;;;;;;16.07;11.50;;;16.00;84.00;;;;;;5011843;28;20459;-73
2023/08/29 10:14:44;;;;;;;21.20;12.67;;;16.10;83.30;;;;;;5011292;28;20753;-73
2023/08/29 10:17:12;;;;;;;21.30;13.40;;;16.00;82.70;;;;;;5013561;28;20445;-73
2023/08/29 10:19:39;;;;;;;17.33;11.93;;;15.80;82.80;;;;;;5014392;28;20447;-72
2023/08/29 10:22:07;;;;;;;17.73;12.00;;;15.80;83.00;;;;;;5013155;28;20454;-72
2023/08/29 10:24:35;;;;;;;18.30;12.60;;;15.90;82.70;;;;;;5010266;28;20428;-73
2023/08/29 10:27:02;;;;;;;18.17;12.47;;;16.10;81.90;;;;;;5015100;28;20448;-72
2023/08/29 10:29:29;;;;;;;20.33;13.13;;;16.10;81.90;;;;;;5013869;28;20529;-74
2023/08/29 10:31:56;;;;;;;18.37;13.30;;;16.40;81.90;;;;;;5015564;28;20470;-73
2023/08/29 10:34:24;;;;;;;18.43;12.80;;;16.30;80.60;;;;;;5016557;28;20436;-74
2023/08/29 10:36:50;;;;;;;18.80;13.27;;;16.40;81.20;;;;;;5017009;28;20430;-71
2023/08/29 10:39:16;;;;;;;16.40;11.47;;;16.60;80.60;;;;;;5020689;28;20523;-73
2023/08/29 10:41:47;;;;;;;17.03;12.80;;;16.80;80.20;;;;;;5016402;28;20479;-72
2023/08/29 10:44:31;;;;;;;18.87;12.53;;;16.90;79.90;;;;;;5025763;28;20428;-74
2023/08/29 10:47:19;;;;;;;17.10;13.53;;;17.00;80.00;;;;;;5022800;28;20476;-73
2023/08/29 10:49:47;;;;;;;18.50;13.40;;;16.90;79.60;;;;;;5018158;28;20472;-73
2023/08/29 10:52:14;;;;;;;16.73;12.87;;;16.50;80.50;;;;;;5015677;28;20512;-72
2023/08/29 10:54:40;;;;;;;21.83;13.80;;;16.70;81.40;;;;;;5022979;28;20812;-74
2023/08/29 10:57:29;;;;;;;19.30;13.80;;;16.60;81.20;;;;;;5021315;28;20500;-71
2023/08/29 10:59:56;;;;;;;21.17;13.17;;;16.40;81.40;;;;;;5021167;28;20423;-74
2023/08/29 11:02:26;;;;;;;19.53;13.10;;;16.40;82.10;;;;;;5019131;28;20949;-72
2023/08/29 11:05:12;;;;;;;19.57;13.10;;;16.40;82.20;;;;;;5021736;28;20428;-74
2023/08/29 11:07:38;;;;;;;16.70;11.97;;;16.30;81.50;;;;;;5021263;28;20484;-72
2023/08/29 11:10:23;;;;;;;20.17;13.80;;;16.30;81.20;;;;;;5027805;28;20432;-72
2023/08/29 11:13:22;;;;;;;23.40;15.77;;;16.30;81.40;;;;;;5024159;28;20433;-73
2023/08/29 11:15:51;;;;;;;24.90;16.53;;;16.10;82.50;;;;;;4941314;28;20444;-74
2023/08/29 11:18:32;;;;;;;24.60;17.40;;;16.10;83.00;;;;;;4937490;28;20426;-72
2023/08/29 11:21:07;;;;;;;24.30;15.90;;;16.20;83.70;;;;;;4941989;29;20471;-73
2023/08/29 11:23:38;;;;;;;20.47;14.67;;;16.20;83.80;;;;;;4927060;29;20837;-74
2023/08/29 11:26:10;;;;;;;23.00;15.20;;;16.20;83.30;;;;;;4932133;29;20438;-72
2023/08/29 11:28:42;;;;;;;20.53;14.27;;;16.10;82.40;;;;;;4928306;29;20580;-74
2023/08/29 11:31:08;;;;;;;24.10;16.10;;;16.30;82.50;;;;;;4927339;29;20499;-73
2023/08/29 11:33:35;;;;;;;26.10;15.47;;;16.60;82.40;;;;;;4928898;29;20950;-74
2023/08/29 11:36:03;;;;;;;22.80;13.77;;;16.70;81.80;;;;;;4931619;29;20448;-72
2023/08/29 11:38:30;;;;;;;20.27;14.27;;;17.30;82.10;;;;;;4929521;29;20990;-73
2023/08/29 11:40:58;;;;;;;20.73;15.50;;;17.60;80.50;;;;;;4931406;29;20477;-73
2023/08/29 11:43:24;;;;;;;23.10;14.70;;;17.70;79.30;;;;;;4936754;29;20497;-74
2023/08/29 11:45:56;;;;;;;18.90;13.33;;;17.70;78.10;;;;;;4932227;29;20924;-71
2023/08/29 11:48:25;;;;;;;17.23;12.13;;;17.70;77.10;;;;;;4931579;29;20526;-73
2023/08/29 11:50:53;;;;;;;17.03;13.37;;;17.50;77.40;;;;;;4948558;28;21005;-70
2023/08/29 11:53:33;;;;;;;14.97;12.33;;;17.90;78.00;;;;;;5010510;28;20496;-73
2023/08/29 11:56:02;;;;;;;18.50;13.77;;;18.10;77.70;;;;;;5016776;28;20409;-74
2023/08/29 11:58:29;;;;;;;18.93;13.90;;;18.20;77.60;;;;;;5020877;28;20480;-73
2023/08/29 12:00:55;;;;;;;17.77;13.53;;;18.20;77.80;;;;;;5012667;28;20974;-74
2023/08/29 12:03:22;;;;;;;20.13;14.13;;;18.20;77.80;;;;;;5012261;28;20421;-72
2023/08/29 12:05:48;;;;;;;17.03;13.97;;;18.20;78.30;;;;;;5018558;28;20510;-72
2023/08/29 12:08:14;;;;;;;22.63;16.90;;;17.80;77.60;;;;;;5019217;28;20547;-74
2023/08/29 12:10:55;;;;;;;22.43;16.07;;;17.30;78.40;;;;;;5012299;28;20206;-74
2023/08/29 12:13:22;;;;;;;23.70;14.97;;;16.90;79.70;;;;;;5011683;28;20518;-72
2023/08/29 12:15:50;;;;;;;22.03;14.77;;;16.60;80.20;;;;;;5022232;28;20443;-73
2023/08/29 12:18:26;;;;;;;23.43;16.10;;;16.30;81.80;;;;;;5018118;28;20426;-74
2023/08/29 12:21:05;;;;;;;19.40;13.60;;;16.40;82.20;;;;;;5022592;28;20465;-73
2023/08/29 12:23:31;;;;;;;18.50;12.73;;;16.50;82.50;;;;;;5012587;28;20464;-74
2023/08/29 12:25:58;;;;;;;18.13;12.97;;;16.60;82.70;;;;;;5021165;28;20470;-73
2023/08/29 12:28:24;;;;;;;20.50;13.43;;;16.80;82.80;;;;;;5009756;28;20220;-73
2023/08/29 12:30:50;;;;;;;19.87;13.70;;;16.90;82.70;;;;;;5018776;28;21000;-73
2023/08/29 12:33:17;;;;;;;23.83;14.23;;;16.90;82.70;;;;;;5014232;28;20851;-76
2023/08/29 12:35:43;;;;;;;25.17;15.93;;;16.70;82.40;;;;;;5017450;28;20888;-73